ADDS METAR Data INFO
IDs: Format: Raw Decoded Include TAF

Data at: 0748 UTC 23 Jul 2018

KIIB 230735Z AUTO 34005KT 5SM BR 17/16 A3001 RMK AO2 T01650160
KIIB 230715Z AUTO 34004KT 4SM BR 17/16 A3001 RMK AO2 T01650161
KIIB 230655Z AUTO 34004KT 5SM BR 17/16 A3001 RMK AO2 T01670163
KIIB 230635Z AUTO 34004KT 5SM BR 17/16 A3002 RMK AO2 T01680163
KIIB 230615Z AUTO 35004KT 7SM 17/17 A3002 RMK AO2 T01700166
KIIB 230555Z AUTO 33005KT 5SM BR 17/17 A3003 RMK AO2 T01700166
KIIB 230535Z AUTO 34004KT 5SM BR 17/17 A3004 RMK AO2 T01700166
KIIB 230515Z AUTO 33004KT 7SM 17/17 A3004 RMK AO2 T01710166
KIIB 230455Z AUTO 32004KT 5SM BR 17/17 A3004 RMK AO2 T01720168
KIIB 230435Z AUTO 29004KT 5SM BR 17/16 A3004 RMK AO2 T01680163
KIIB 230415Z AUTO 00000KT 5SM BR 17/16 A3003 RMK AO2 T01690164
KIIB 230355Z AUTO 00000KT 4SM BR 17/17 A3002 RMK AO2 T01710165
KIIB 230335Z AUTO 36003KT 7SM 17/17 A3002 RMK AO2 T01740168
KIIB 230315Z AUTO 00000KT 10SM 18/17 A3002 RMK AO2 T01820174
KIIB 230255Z AUTO 00000KT 10SM 18/17 A3002 RMK AO2 T01820174
KIIB 230235Z AUTO 00000KT 7SM 19/18 A3002 RMK AO2 T01860176
KIIB 230215Z AUTO 35003KT 10SM 19/18 A3001 RMK AO2 T01900177
KIIB 230155Z AUTO 36003KT 10SM 20/18 A3001 RMK AO2 T01950178
KIIB 230135Z AUTO 02003KT 10SM 20/18 A3001 RMK AO2 T02020181
KIIB 230115Z AUTO 01003KT 10SM 21/18 A3001 RMK AO2 T02140181
KIIB 230055Z AUTO 35004KT 10SM 22/18 A3001 RMK AO2 T02240182
KIIB 230035Z AUTO 34003KT 10SM 23/18 A3001 RMK AO2 T02310182
KIIB 230015Z AUTO 03005KT 10SM 23/18 A3001 RMK AO2 T02330182
KIIB 222355Z AUTO 01004KT 10SM 23/18 A3001 RMK AO2 T02250178
KIIB 222335Z AUTO 02007KT 10SM 24/18 A3001 RMK AO2 T02370177
KIIB 222315Z AUTO 03008KT 10SM 24/18 A3000 RMK AO2 T02380176
KIIB 222255Z AUTO 02009KT 10SM 24/18 A3000 RMK AO2 T02430176
KIIB 222235Z AUTO 01008KT 10SM 24/18 A3001 RMK AO2 T02410179
KIIB 222215Z AUTO 03007KT 10SM 24/18 A3001 RMK AO2 T02360175
KIIB 222155Z AUTO 01005KT 10SM 24/18 A3001 RMK AO2 T02360177
KIIB 222135Z AUTO 36006KT 10SM 24/18 A3001 RMK AO2 T02370176
KIIB 222115Z AUTO 02005KT 10SM 24/18 A3001 RMK AO2 T02350176
KIIB 222055Z AUTO 01007KT 10SM 23/17 A3001 RMK AO2 T02310173
KIIB 222035Z AUTO 36008KT 10SM 23/17 A3001 RMK AO2 T02330174
KIIB 222015Z AUTO 01006KT 10SM 24/18 A3001 RMK AO2 T02370176
KIIB 221955Z AUTO 01008KT 10SM 23/17 A3001 RMK AO2 P0001 T02310171
KIIB 221935Z AUTO 01006KT 10SM 23/17 A3001 RMK AO2 T02310171
KIIB 221915Z AUTO 02009KT 10SM 23/17 A3001 RMK AO2 T02320172
KIIB 221855Z AUTO 01009G14KT 10SM 24/17 A3000 RMK AO2 T02370171
KIIB 221835Z AUTO 03009G14KT 10SM 24/17 A3000 RMK AO2 T02380171
KIIB 221815Z AUTO 01007KT 10SM 24/18 A3000 RMK AO2 T02370175
KIIB 221755Z AUTO 35008KT 10SM 23/18 A3000 RMK AO2 T02310175
KIIB 221735Z AUTO 36008KT 10SM 23/17 A3000 RMK AO2 T02280172
KIIB 221715Z AUTO 03007KT 10SM 22/17 A3001 RMK AO2 T02170166
KIIB 221655Z AUTO 01008KT 10SM 21/16 A3001 RMK AO2 P0001 T02110164
KIIB 221635Z AUTO 36008KT 10SM 21/16 A3001 RMK AO2 P0001 T02110164
KIIB 221615Z AUTO 36007KT 330V030 10SM 21/17 A3001 RMK AO2 P0001 T02070165
KIIB 221555Z AUTO 36008KT 10SM 21/16 A3000 RMK AO2 T02060164
KIIB 221535Z AUTO 01009KT 10SM 20/16 A3001 RMK AO2 T01950160
KIIB 221515Z AUTO 36009KT 10SM 20/16 A3001 RMK AO2 T01950159
KIIB 221455Z AUTO 01010G14KT 10SM 20/16 A3001 RMK AO2 T01960162
KIIB 221435Z AUTO 35008KT 10SM 20/16 A3002 RMK AO2 T01960163
KIIB 221415Z AUTO 36007KT 10SM 19/16 A3002 RMK AO2 T01910163
KIIB 221355Z AUTO 01007KT 10SM 19/16 A3002 RMK AO2 T01850158
KIIB 221335Z AUTO 36008KT 10SM 18/16 A3002 RMK AO2 T01820159
KIIB 221315Z AUTO 02009KT 10SM 18/16 A3003 RMK AO2 T01780160
KIIB 221255Z AUTO 02009G14KT 10SM 18/16 A3002 RMK AO2 T01760158
KIIB 221235Z AUTO 02008G15KT 10SM 18/16 A3002 RMK AO2 T01750158
KIIB 221215Z AUTO 02008KT 10SM 17/16 A3001 RMK AO2 T01740160
KIIB 221155Z AUTO 02007KT 10SM 17/16 A3001 RMK AO2 T01710160
KIIB 221135Z AUTO 03009KT 10SM 17/16 A3001 RMK AO2 T01690159
KIIB 221115Z AUTO 01010G14KT 10SM 17/16 A3002 RMK AO2 T01650158
KIIB 221055Z AUTO 36006KT 7SM 16/16 A3000 RMK AO2 T01610156
KIIB 221035Z AUTO 35006KT 7SM 16/15 A3000 RMK AO2 T01580153
KIIB 221015Z AUTO 35005KT 7SM 16/15 A2999 RMK AO2 T01560151
KIIB 220955Z AUTO 35005KT 7SM 16/15 A2998 RMK AO2 T01560151
KIIB 220935Z AUTO 35004KT 7SM 16/15 A2998 RMK AO2 T01560151
KIIB 220915Z AUTO 33005KT 7SM 16/15 A2999 RMK AO2 T01580152
KIIB 220855Z AUTO 32004KT 7SM 16/15 A2999 RMK AO2 T01580152
KIIB 220835Z AUTO 34004KT 7SM 16/16 A2998 RMK AO2 T01600155
KIIB 220815Z AUTO 35005KT 10SM 16/16 A2998 RMK AO2 T01640157
KIIB 220755Z AUTO 34005KT 10SM 17/16 A2998 RMK AO2 T01650157
KIIB 220735Z AUTO 35006KT 10SM 17/16 A2998 RMK AO2 T01700160
KIIB 220715Z AUTO 35005KT 10SM 17/16 A3000 RMK AO2 T01700161
KIIB 220655Z AUTO 34005KT 10SM 17/16 A3000 RMK AO2 T01670160
KIIB 220635Z AUTO 33005KT 10SM 17/16 A3000 RMK AO2 T01670160
KIIB 220615Z AUTO 33005KT 10SM 17/16 A2999 RMK AO2 T01660160
KIIB 220555Z AUTO 33005KT 10SM 17/16 A2999 RMK AO2 T01680160
KIIB 220535Z AUTO 32004KT 10SM 17/16 A2999 RMK AO2 T01710161
KIIB 220515Z AUTO 32004KT 10SM 17/16 A2999 RMK AO2 T01730162
KIIB 220455Z AUTO 33003KT 10SM 18/16 A2999 RMK AO2 T01770161
KIIB 220435Z AUTO 36005KT 10SM 18/16 A3000 RMK AO2 T01800162
KIIB 220415Z AUTO 36005KT 10SM 18/16 A3000 RMK AO2 T01840161
KIIB 220355Z AUTO 36006KT 10SM 19/16 A3000 RMK AO2 T01900162
KIIB 220335Z AUTO 36005KT 10SM 19/16 A2999 RMK AO2 T01920162
KIIB 220315Z AUTO 36005KT 10SM 20/16 A2999 RMK AO2 T02000161
KIIB 220255Z AUTO 36008KT 10SM 21/16 A2999 RMK AO2 P0001 T02070160
KIIB 220235Z AUTO 01008KT 10SM 22/16 A2998 RMK AO2 P0001 T02150158
KIIB 220215Z AUTO 36007KT 10SM 22/18 A2997 RMK AO2 T02150175
KIIB 220155Z AUTO 35005KT 10SM 21/18 A2997 RMK AO2 P0001 T02120176
KIIB 220135Z AUTO 35006KT 10SM 22/17 A2997 RMK AO2 P0001 T02170174
KIIB 220115Z AUTO 35005KT 10SM 23/17 A2996 RMK AO2 P0001 T02260173
KIIB 220055Z AUTO 35008KT 10SM 23/17 A2995 RMK AO2 T02340173
KIIB 220035Z AUTO 36007G14KT 10SM 24/17 A2995 RMK AO2 T02400172
KIIB 220015Z AUTO 35010G14KT 10SM 24/17 A2995 RMK AO2 T02400173
KIIB 212355Z AUTO 35008KT 10SM 25/17 A2994 RMK AO2 T02520171
KIIB 212335Z AUTO 34007G17KT 10SM 26/17 A2994 RMK AO2 T02550174
KIIB 212315Z AUTO 34011KT 10SM 26/18 A2994 RMK AO2 T02600177
KIIB 212255Z AUTO 35011G14KT 10SM 26/18 A2994 RMK AO2 T02600182
KIIB 212235Z AUTO 36008KT 10SM 26/18 A2994 RMK AO2 T02600177
KIIB 212215Z AUTO 35014G17KT 10SM 26/18 A2994 RMK AO2 T02620176
KIIB 212155Z AUTO 34013G17KT 10SM 26/18 A2994 RMK AO2 T02630180
KIIB 212135Z AUTO 33013G17KT 10SM 26/19 A2994 RMK AO2 T02630188
KIIB 212115Z AUTO 33012G17KT 10SM 26/19 A2995 RMK AO2 T02560188
KIIB 212055Z AUTO 33010G17KT 10SM 26/19 A2995 RMK AO2 T02610188
KIIB 212035Z AUTO 33009KT 10SM 26/19 A2994 RMK AO2 T02550190
KIIB 212015Z AUTO 33010KT 10SM 26/19 A2995 RMK AO2 T02610190
KIIB 211955Z AUTO 34009G15KT 10SM 26/19 A2995 RMK AO2 P0001 T02600188